createdAt,value
2019-05-21T00:00:45.465Z,53.63
2019-05-21T00:03:13.876Z,53.90
2019-05-21T00:05:42.539Z,53.50
2019-05-21T00:08:11.229Z,52.30
2019-05-21T00:10:39.922Z,49.73
2019-05-21T00:13:08.355Z,53.50
2019-05-21T00:15:36.737Z,52.33
2019-05-21T00:18:05.530Z,50.83
2019-05-21T00:20:33.951Z,52.07
2019-05-21T00:23:02.375Z,52.00
2019-05-21T00:25:31.245Z,49.53
2019-05-21T00:28:34.406Z,50.10
2019-05-21T00:31:39.362Z,48.60
2019-05-21T00:34:44.704Z,47.10
2019-05-21T00:37:50.124Z,46.40
2019-05-21T00:40:55.419Z,47.20
2019-05-21T00:43:26.861Z,46.67
2019-05-21T00:45:55.267Z,47.50
2019-05-21T00:48:24.146Z,45.67
2019-05-21T00:50:52.829Z,43.77
2019-05-21T00:53:21.233Z,43.90
2019-05-21T00:55:49.898Z,42.20
2019-05-21T00:58:18.328Z,44.87
2019-05-21T01:00:46.734Z,42.70
2019-05-21T01:03:15.359Z,39.30
2019-05-21T01:05:43.782Z,36.17
2019-05-21T01:08:12.448Z,39.57
2019-05-21T01:10:40.865Z,37.97
2019-05-21T01:13:09.256Z,38.67
2019-05-21T01:15:37.645Z,38.83
2019-05-21T01:18:06.117Z,36.50
2019-05-21T01:20:34.524Z,38.37
2019-05-21T01:23:02.933Z,37.27
2019-05-21T01:25:31.627Z,39.80
2019-05-21T01:28:00.028Z,38.77
2019-05-21T01:30:28.534Z,39.03
2019-05-21T01:32:57.198Z,38.23
2019-05-21T01:35:25.691Z,41.73
2019-05-21T01:37:54.077Z,41.10
2019-05-21T01:40:22.469Z,40.13
2019-05-21T01:42:50.957Z,40.43
2019-05-21T01:45:19.430Z,41.93
2019-05-21T01:47:47.823Z,41.10
2019-05-21T01:50:16.317Z,39.63
2019-05-21T01:52:44.790Z,40.97
2019-05-21T01:55:13.265Z,40.30
2019-05-21T01:57:41.764Z,37.57
2019-05-21T02:00:10.516Z,40.30
2019-05-21T02:02:39.151Z,40.30
2019-05-21T02:05:07.623Z,38.90
2019-05-21T02:07:36.811Z,37.97
2019-05-21T02:10:08.363Z,37.13
2019-05-21T02:12:36.758Z,37.70
2019-05-21T02:15:06.498Z,36.87
2019-05-21T02:17:34.898Z,37.63
2019-05-21T02:20:03.836Z,36.40
2019-05-21T02:22:32.525Z,37.10
2019-05-21T02:25:01.327Z,38.80
2019-05-21T02:27:29.823Z,37.60
2019-05-21T02:29:58.694Z,36.90
2019-05-21T02:32:27.387Z,36.07
2019-05-21T02:34:55.804Z,36.03
2019-05-21T02:37:24.189Z,36.90
2019-05-21T02:39:52.574Z,38.13
2019-05-21T02:42:20.976Z,37.07
2019-05-21T02:44:53.642Z,37.43
2019-05-21T02:47:19.939Z,40.53
2019-05-21T02:49:48.580Z,39.33
2019-05-21T02:52:16.973Z,39.70
2019-05-21T02:54:45.377Z,38.40
2019-05-21T02:57:13.792Z,39.43
2019-05-21T02:59:43.979Z,39.00
2019-05-21T03:02:29.270Z,41.10
2019-05-21T03:04:57.673Z,41.30
2019-05-21T03:07:26.283Z,42.20
2019-05-21T03:09:54.753Z,41.07
2019-05-21T03:12:23.156Z,41.87
2019-05-21T03:14:51.803Z,43.30
2019-05-21T03:17:20.497Z,42.93
2019-05-21T03:19:48.893Z,41.30
2019-05-21T03:22:17.572Z,42.10
2019-05-21T03:24:45.957Z,43.37
2019-05-21T03:27:14.368Z,41.20
2019-05-21T03:29:42.748Z,40.43
2019-05-21T03:32:11.134Z,42.50
2019-05-21T03:34:39.902Z,44.03
2019-05-21T03:37:08.371Z,41.40
2019-05-21T03:39:36.736Z,43.83
2019-05-21T03:42:05.546Z,43.40
2019-05-21T03:44:34.552Z,41.53
2019-05-21T03:47:02.940Z,42.30
2019-05-21T03:49:31.938Z,43.27
2019-05-21T03:52:00.417Z,41.97
2019-05-21T03:54:28.803Z,40.07
2019-05-21T03:56:57.215Z,40.80
2019-05-21T03:59:25.605Z,42.17
2019-05-21T04:01:54.016Z,40.17
2019-05-21T04:04:22.746Z,42.00
2019-05-21T04:06:52.568Z,40.50
2019-05-21T04:09:21.179Z,40.33
2019-05-21T04:11:53.053Z,40.97
2019-05-21T04:14:33.508Z,41.10
2019-05-21T04:17:03.910Z,40.07
2019-05-21T04:19:33.938Z,41.87
2019-05-21T04:22:02.342Z,40.63
2019-05-21T04:24:30.735Z,41.77
2019-05-21T04:26:59.142Z,43.40
2019-05-21T04:29:27.879Z,42.07
2019-05-21T04:31:56.554Z,41.07
2019-05-21T04:34:25.032Z,38.60
2019-05-21T04:37:09.376Z,41.10
2019-05-21T04:39:23.617Z,39.17
2019-05-21T04:41:51.951Z,39.80
2019-05-21T04:44:20.474Z,41.50
2019-05-21T04:46:48.861Z,44.37
2019-05-21T04:49:17.305Z,45.57
2019-05-21T04:51:45.734Z,46.27
2019-05-21T04:54:14.097Z,47.13
2019-05-21T04:56:42.491Z,46.90
2019-05-21T04:59:10.894Z,51.00
2019-05-21T05:01:39.321Z,48.60
2019-05-21T05:04:07.867Z,48.47
2019-05-21T05:06:36.593Z,54.30
2019-05-21T05:09:06.919Z,51.47
2019-05-21T05:11:35.493Z,50.00
2019-05-21T05:14:03.953Z,51.83
2019-05-21T05:16:32.674Z,54.43
2019-05-21T05:19:02.582Z,52.40
2019-05-21T05:21:31.000Z,50.57
2019-05-21T05:23:59.495Z,52.90
2019-05-21T05:26:28.665Z,53.33
2019-05-21T05:28:57.061Z,52.13
2019-05-21T05:31:25.555Z,53.80
2019-05-21T05:33:53.963Z,54.33
2019-05-21T05:36:22.348Z,55.27
2019-05-21T05:38:50.744Z,55.03
2019-05-21T05:41:19.129Z,55.83
2019-05-21T05:43:47.534Z,59.13
2019-05-21T05:46:16.210Z,55.97
2019-05-21T05:48:46.279Z,55.00
2019-05-21T05:51:14.912Z,58.57
2019-05-21T05:53:58.189Z,58.40
2019-05-21T05:56:28.540Z,59.47
2019-05-21T05:58:57.011Z,64.77
2019-05-21T06:01:26.437Z,61.13
2019-05-21T06:03:54.830Z,62.57
2019-05-21T06:06:23.224Z,62.70
2019-05-21T06:08:59.475Z,62.77
2019-05-21T06:11:28.222Z,65.53
2019-05-21T06:13:56.850Z,63.43
2019-05-21T06:16:26.891Z,63.67
2019-05-21T06:18:58.472Z,61.30
2019-05-21T06:21:26.879Z,63.70
2019-05-21T06:23:55.547Z,64.17
2019-05-21T06:26:24.002Z,63.17
2019-05-21T06:28:52.411Z,61.40
2019-05-21T06:31:20.804Z,60.63
2019-05-21T06:33:49.436Z,56.27
2019-05-21T06:36:18.104Z,57.93
2019-05-21T06:38:46.491Z,58.67
2019-05-21T06:41:15.143Z,59.50
2019-05-21T06:43:43.673Z,60.17
2019-05-21T06:46:12.143Z,55.60
2019-05-21T06:48:40.830Z,55.40
2019-05-21T06:51:12.120Z,56.83
2019-05-21T06:53:40.516Z,54.70
2019-05-21T06:56:09.238Z,56.80
2019-05-21T06:58:37.629Z,55.87
2019-05-21T07:01:06.309Z,54.87
2019-05-21T07:03:35.001Z,53.83
2019-05-21T07:06:03.421Z,55.70
2019-05-21T07:08:35.081Z,55.00
2019-05-21T07:11:02.305Z,59.00
2019-05-21T07:13:31.311Z,59.10
2019-05-21T07:16:00.022Z,64.53
2019-05-21T07:18:28.388Z,62.60
2019-05-21T07:20:57.017Z,59.73
2019-05-21T07:23:25.401Z,61.00
2019-05-21T07:25:53.961Z,61.03
2019-05-21T07:28:22.366Z,63.97
2019-05-21T07:30:51.057Z,60.80
2019-05-21T07:33:19.460Z,64.10
2019-05-21T07:35:47.854Z,60.50
2019-05-21T07:38:16.273Z,58.77
2019-05-21T07:40:44.707Z,55.90
2019-05-21T07:43:13.320Z,53.97
2019-05-21T07:45:42.016Z,57.10
2019-05-21T07:48:10.439Z,58.90
2019-05-21T07:50:39.197Z,58.93
2019-05-21T07:53:07.698Z,59.07
2019-05-21T07:55:36.370Z,60.93
2019-05-21T07:58:04.841Z,57.70
2019-05-21T08:00:33.550Z,60.20
2019-05-21T08:03:01.959Z,60.30
2019-05-21T08:05:30.375Z,59.60
2019-05-21T08:07:59.109Z,56.37
2019-05-21T08:10:27.792Z,57.93
2019-05-21T08:12:56.195Z,60.33
2019-05-21T08:15:24.642Z,59.23
2019-05-21T08:17:53.005Z,56.90
2019-05-21T08:20:22.982Z,61.30
2019-05-21T08:22:51.388Z,61.37
2019-05-21T08:25:20.038Z,60.97
2019-05-21T08:27:48.437Z,61.60
2019-05-21T08:30:17.152Z,61.20
2019-05-21T08:32:45.626Z,58.57
2019-05-21T08:35:14.350Z,58.47
2019-05-21T08:37:42.764Z,55.43
2019-05-21T08:40:12.353Z,59.87
2019-05-21T08:42:40.732Z,54.60
2019-05-21T08:45:10.074Z,57.47
2019-05-21T08:47:38.765Z,55.67
2019-05-21T08:50:08.201Z,51.10
2019-05-21T08:52:36.590Z,48.63
2019-05-21T08:55:07.043Z,49.63
2019-05-21T08:57:35.466Z,50.47
2019-05-21T09:00:10.239Z,49.63
2019-05-21T09:02:38.982Z,49.13
2019-05-21T09:05:07.989Z,50.77
2019-05-21T09:07:36.495Z,50.73
2019-05-21T09:10:06.860Z,50.43
2019-05-21T09:12:35.250Z,50.10
2019-05-21T09:15:04.428Z,49.73
2019-05-21T09:17:33.064Z,47.47
2019-05-21T09:20:01.544Z,46.40
2019-05-21T09:22:30.449Z,49.43
2019-05-21T09:24:59.237Z,45.93
2019-05-21T09:27:27.690Z,45.40
2019-05-21T09:29:56.130Z,44.50
2019-05-21T09:32:24.532Z,43.80
2019-05-21T09:34:53.308Z,45.10
2019-05-21T09:37:21.699Z,46.83
2019-05-21T09:39:50.361Z,45.10
2019-05-21T09:42:19.069Z,46.07
2019-05-21T09:44:47.488Z,50.87
2019-05-21T09:47:16.127Z,50.23
2019-05-21T09:49:44.576Z,54.20
2019-05-21T09:52:12.924Z,53.53
2019-05-21T09:54:41.692Z,53.37
2019-05-21T09:57:11.785Z,52.70
2019-05-21T09:59:41.800Z,54.50
2019-05-21T10:02:20.765Z,52.37
2019-05-21T10:04:49.187Z,50.20
2019-05-21T10:07:17.821Z,49.30
2019-05-21T10:09:46.263Z,46.50
2019-05-21T10:12:14.878Z,44.17
2019-05-21T10:14:43.286Z,44.10
2019-05-21T10:17:11.966Z,43.57
2019-05-21T10:19:40.580Z,43.97
2019-05-21T10:22:09.378Z,44.70
2019-05-21T10:24:38.349Z,42.77
2019-05-21T10:27:06.995Z,43.60
2019-05-21T10:29:35.393Z,43.20
2019-05-21T10:32:04.056Z,45.17
2019-05-21T10:34:32.472Z,45.53
2019-05-21T10:37:00.894Z,48.10
2019-05-21T10:39:29.304Z,47.23
2019-05-21T10:41:57.706Z,47.20
2019-05-21T10:44:26.437Z,46.00
2019-05-21T10:46:54.832Z,46.47
2019-05-21T10:49:23.233Z,46.97
2019-05-21T10:51:51.631Z,46.93
2019-05-21T10:54:20.373Z,43.50
2019-05-21T10:56:49.006Z,44.53
2019-05-21T10:59:17.645Z,44.70
2019-05-21T11:01:50.405Z,42.70
2019-05-21T11:04:20.497Z,43.03
2019-05-21T11:06:49.115Z,43.80
2019-05-21T11:09:19.229Z,43.23
2019-05-21T11:11:47.633Z,42.57
2019-05-21T11:14:16.558Z,42.57
2019-05-21T11:16:44.959Z,43.37
2019-05-21T11:19:13.534Z,45.00
2019-05-21T11:21:42.008Z,48.67
2019-05-21T11:24:10.432Z,51.70
2019-05-21T11:26:38.914Z,50.00
2019-05-21T11:29:07.318Z,50.47
2019-05-21T11:31:35.793Z,51.60
2019-05-21T11:34:04.745Z,51.97
2019-05-21T11:36:33.126Z,55.67
2019-05-21T11:39:01.809Z,54.07
2019-05-21T11:41:30.500Z,55.20
2019-05-21T11:43:58.901Z,57.43
2019-05-21T11:46:27.295Z,57.80
2019-05-21T11:48:55.787Z,57.70
2019-05-21T11:51:24.200Z,58.60
2019-05-21T11:53:52.834Z,58.43
2019-05-21T11:56:21.236Z,59.10
2019-05-21T11:58:49.629Z,53.57
2019-05-21T12:01:18.099Z,55.60
2019-05-21T12:03:46.776Z,55.47
2019-05-21T12:06:15.156Z,55.10
2019-05-21T12:08:56.198Z,53.87
2019-05-21T12:11:13.799Z,52.13
2019-05-21T12:13:42.547Z,53.60
2019-05-21T12:16:10.952Z,51.43
2019-05-21T12:18:39.642Z,54.10
2019-05-21T12:21:08.137Z,54.63
2019-05-21T12:23:36.534Z,55.27
2019-05-21T12:26:05.289Z,55.40
2019-05-21T12:28:33.942Z,55.67
2019-05-21T12:31:02.370Z,57.53
2019-05-21T12:33:34.708Z,59.90
2019-05-21T12:36:00.936Z,56.83
2019-05-21T12:38:29.403Z,57.57
2019-05-21T12:40:57.921Z,57.70
2019-05-21T12:43:26.316Z,62.97
2019-05-21T12:45:54.800Z,63.10
2019-05-21T12:48:23.468Z,61.90
2019-05-21T12:50:52.010Z,64.77
2019-05-21T12:53:20.460Z,63.07
2019-05-21T12:55:48.988Z,62.87
2019-05-21T12:58:17.446Z,63.67
2019-05-21T13:00:45.893Z,62.60
2019-05-21T13:03:14.347Z,63.50
2019-05-21T13:05:42.831Z,65.23
2019-05-21T13:08:11.340Z,60.00
2019-05-21T13:10:39.774Z,63.23
2019-05-21T13:13:08.382Z,61.73
2019-05-21T13:15:40.895Z,57.13
2019-05-21T13:18:09.934Z,55.30
2019-05-21T13:20:38.778Z,55.53
2019-05-21T13:23:07.342Z,58.40
2019-05-21T13:25:36.806Z,58.00
2019-05-21T13:28:05.475Z,55.67
2019-05-21T13:30:33.960Z,56.90
2019-05-21T13:33:02.489Z,59.40
2019-05-21T13:35:31.027Z,58.40
2019-05-21T13:38:00.875Z,61.90
2019-05-21T13:40:31.596Z,63.23
2019-05-21T13:43:03.273Z,62.87
2019-05-21T13:45:31.707Z,62.10
2019-05-21T13:48:00.084Z,63.00
2019-05-21T13:50:28.631Z,69.20
2019-05-21T13:52:57.404Z,66.23
2019-05-21T13:55:25.921Z,61.90
2019-05-21T13:57:54.384Z,62.40
2019-05-21T14:00:30.718Z,61.57
2019-05-21T14:03:02.093Z,64.13
2019-05-21T14:05:31.157Z,66.50
2019-05-21T14:08:04.718Z,62.80
2019-05-21T14:10:33.662Z,61.23
2019-05-21T14:13:02.537Z,64.30
2019-05-21T14:15:30.948Z,59.63
2019-05-21T14:18:02.537Z,66.47
2019-05-21T14:20:31.200Z,63.87
2019-05-21T14:22:59.600Z,61.93
2019-05-21T14:25:32.481Z,65.57
2019-05-21T14:28:06.192Z,62.67
2019-05-21T14:30:32.723Z,61.53
2019-05-21T14:33:02.098Z,62.50
2019-05-21T14:35:30.589Z,62.50
2019-05-21T14:37:59.071Z,63.13
2019-05-21T14:40:32.807Z,64.73
2019-05-21T14:43:00.930Z,61.73
2019-05-21T14:45:33.776Z,64.00
2019-05-21T14:47:59.927Z,61.87
2019-05-21T14:50:28.468Z,64.07
2019-05-21T14:52:56.854Z,58.40
2019-05-21T14:55:25.278Z,56.67
2019-05-21T14:57:53.759Z,58.00
2019-05-21T15:00:29.388Z,57.93
2019-05-21T15:02:57.840Z,57.90
2019-05-21T15:05:26.226Z,57.30
2019-05-21T15:07:54.687Z,58.27
2019-05-21T15:10:23.327Z,57.03
2019-05-21T15:12:51.751Z,57.13
2019-05-21T15:15:20.215Z,57.37
2019-05-21T15:17:48.700Z,60.30
2019-05-21T15:20:31.101Z,58.73
2019-05-21T15:22:59.483Z,58.20
2019-05-21T15:25:27.982Z,58.97
2019-05-21T15:27:56.458Z,61.27
2019-05-21T15:30:24.851Z,59.20
2019-05-21T15:32:53.259Z,56.57
2019-05-21T15:35:21.719Z,55.80
2019-05-21T15:37:50.486Z,55.43
2019-05-21T15:40:19.478Z,54.37
2019-05-21T15:42:52.504Z,56.73
2019-05-21T15:45:18.333Z,53.50
2019-05-21T15:47:46.728Z,54.63
2019-05-21T15:50:15.858Z,54.63
2019-05-21T15:52:44.259Z,55.17
2019-05-21T15:55:13.294Z,54.80
2019-05-21T15:57:41.694Z,58.67
2019-05-21T16:00:13.211Z,57.93
2019-05-21T16:02:41.647Z,56.73
2019-05-21T16:05:10.581Z,56.97
2019-05-21T16:07:38.988Z,56.67
2019-05-21T16:10:10.941Z,54.70
2019-05-21T16:12:39.428Z,56.47
2019-05-21T16:15:08.185Z,54.10
2019-05-21T16:17:36.994Z,55.10
2019-05-21T16:20:08.968Z,54.23
2019-05-21T16:22:37.351Z,56.50
2019-05-21T16:25:07.932Z,52.97
2019-05-21T16:27:36.336Z,54.17
2019-05-21T16:30:07.854Z,55.20
2019-05-21T16:32:36.334Z,56.17
2019-05-21T16:35:09.221Z,54.50
2019-05-21T16:37:37.986Z,54.93
2019-05-21T16:40:10.176Z,55.40
2019-05-21T16:42:38.569Z,56.27
2019-05-21T16:45:08.723Z,55.63
2019-05-21T16:47:45.824Z,55.50
2019-05-21T16:50:08.236Z,56.63
2019-05-21T16:52:37.922Z,55.87
2019-05-21T16:55:09.037Z,56.07
2019-05-21T16:57:37.533Z,55.53
2019-05-21T17:00:10.242Z,54.37
2019-05-21T17:02:43.606Z,54.03
2019-05-21T17:05:13.975Z,55.30
2019-05-21T17:07:42.362Z,52.50
2019-05-21T17:10:11.003Z,51.97
2019-05-21T17:12:39.407Z,54.93
2019-05-21T17:15:14.236Z,54.00
2019-05-21T17:17:45.694Z,52.93
2019-05-21T17:20:28.624Z,51.27
2019-05-21T17:22:50.915Z,54.17
2019-05-21T17:25:21.501Z,53.60
2019-05-21T17:27:50.199Z,53.03
2019-05-21T17:30:22.972Z,51.20
2019-05-21T17:32:51.644Z,51.70
2019-05-21T17:35:20.185Z,49.77
2019-05-21T17:37:48.920Z,51.23
2019-05-21T17:40:17.887Z,51.23
2019-05-21T17:42:46.445Z,50.70
2019-05-21T17:45:15.401Z,51.97
2019-05-21T17:47:43.809Z,50.80
2019-05-21T17:50:13.063Z,51.20
2019-05-21T17:52:41.614Z,54.47
2019-05-21T17:55:10.253Z,51.20
2019-05-21T17:57:38.750Z,54.13
2019-05-21T18:00:10.116Z,52.10
2019-05-21T18:02:40.399Z,50.67
2019-05-21T18:05:10.315Z,49.40
2019-05-21T18:07:39.651Z,51.00
2019-05-21T18:10:09.961Z,50.67
2019-05-21T18:12:38.732Z,52.63
2019-05-21T18:15:10.173Z,52.53
2019-05-21T18:17:39.294Z,52.00
2019-05-21T18:20:08.500Z,52.10
2019-05-21T18:22:38.933Z,53.50
2019-05-21T18:25:08.242Z,51.60
2019-05-21T18:27:37.177Z,54.10
2019-05-21T18:30:07.879Z,52.90
2019-05-21T18:32:36.947Z,53.00
2019-05-21T18:35:08.957Z,52.50
2019-05-21T18:37:38.904Z,51.97
2019-05-21T18:40:09.372Z,54.50
2019-05-21T18:42:37.785Z,53.40
2019-05-21T18:45:11.013Z,55.73
2019-05-21T18:47:39.492Z,53.17
2019-05-21T18:50:11.576Z,55.10
2019-05-21T18:52:40.052Z,53.03
2019-05-21T18:55:10.180Z,56.80
2019-05-21T18:57:38.603Z,53.03
2019-05-21T19:00:11.718Z,54.70
2019-05-21T19:02:40.447Z,54.60
2019-05-21T19:05:09.634Z,54.17
2019-05-21T19:07:38.023Z,52.67
2019-05-21T19:10:10.635Z,54.70
2019-05-21T19:12:39.671Z,52.17
2019-05-21T19:15:09.923Z,58.43
2019-05-21T19:17:38.427Z,50.33
2019-05-21T19:20:10.366Z,52.47
2019-05-21T19:22:38.819Z,52.80
2019-05-21T19:25:08.148Z,51.90
2019-05-21T19:27:36.528Z,52.80
2019-05-21T19:30:07.232Z,54.20
2019-05-21T19:32:35.807Z,52.70
2019-05-21T19:35:05.547Z,53.63
2019-05-21T19:37:34.011Z,52.17
2019-05-21T19:40:03.092Z,52.27
2019-05-21T19:42:31.648Z,49.53
2019-05-21T19:45:01.148Z,50.30
2019-05-21T19:47:29.505Z,47.10
2019-05-21T19:49:59.472Z,51.13
2019-05-21T19:52:27.935Z,47.40
2019-05-21T19:54:56.430Z,47.27
2019-05-21T20:00:43.248Z,47.13
2019-05-21T20:03:12.675Z,50.97
2019-05-21T20:05:41.066Z,48.90
2019-05-21T20:08:10.065Z,49.97
2019-05-21T20:10:38.566Z,49.40
2019-05-21T20:13:07.227Z,48.77
2019-05-21T20:15:35.687Z,51.07
2019-05-21T20:18:07.556Z,51.50
2019-05-21T20:20:35.038Z,51.30
2019-05-21T20:23:08.270Z,48.60
2019-05-21T20:25:35.433Z,48.20
2019-05-21T20:28:05.637Z,50.03
2019-05-21T20:30:34.701Z,48.30
2019-05-21T20:33:03.104Z,49.70
2019-05-21T20:35:31.978Z,48.70
2019-05-21T20:38:00.365Z,48.77
2019-05-21T20:40:29.045Z,47.90
2019-05-21T20:42:58.077Z,48.90
2019-05-21T20:45:27.803Z,49.67
2019-05-21T20:47:57.629Z,47.77
2019-05-21T20:50:26.292Z,45.30
2019-05-21T20:52:54.716Z,45.53
2019-05-21T20:55:24.044Z,44.70
2019-05-21T20:57:53.274Z,45.47
2019-05-21T21:00:25.155Z,45.03
2019-05-21T21:02:53.628Z,44.57
2019-05-21T21:05:22.253Z,43.37
2019-05-21T21:07:51.179Z,45.00
2019-05-21T21:10:19.811Z,44.20
2019-05-21T21:12:48.575Z,43.67
2019-05-21T21:15:17.184Z,44.10
2019-05-21T21:17:45.940Z,42.60
2019-05-21T21:20:14.892Z,42.37
2019-05-21T21:22:43.450Z,44.93
2019-05-21T21:25:12.539Z,42.73
2019-05-21T21:27:41.780Z,45.17
2019-05-21T21:30:10.789Z,42.93
2019-05-21T21:32:39.418Z,44.00
2019-05-21T21:35:10.014Z,46.77
2019-05-21T21:37:38.580Z,48.47
2019-05-21T21:40:10.831Z,45.90
2019-05-21T21:42:40.603Z,45.07
2019-05-21T21:45:09.918Z,46.13
2019-05-21T21:47:39.749Z,45.73
2019-05-21T21:50:18.751Z,45.60
2019-05-21T21:52:47.782Z,45.27
2019-05-21T21:55:17.826Z,45.43
2019-05-21T21:57:46.497Z,45.43
2019-05-21T22:00:49.927Z,45.70
2019-05-21T22:03:20.202Z,48.57
2019-05-21T22:05:49.506Z,46.80
2019-05-21T22:08:18.086Z,45.97
2019-05-21T22:10:46.605Z,46.87
2019-05-21T22:13:15.073Z,47.47
2019-05-21T22:15:43.463Z,50.33
2019-05-21T22:18:14.385Z,49.17
2019-05-21T22:20:43.519Z,47.97
2019-05-21T22:23:12.857Z,49.20
2019-05-21T22:25:41.620Z,49.23
2019-05-21T22:28:10.268Z,46.47
2019-05-21T22:30:38.978Z,49.03
2019-05-21T22:33:07.564Z,47.87
2019-05-21T22:35:36.348Z,46.30
2019-05-21T22:38:04.745Z,48.87
2019-05-21T22:40:33.521Z,49.40
2019-05-21T22:43:01.932Z,49.50
2019-05-21T22:45:30.485Z,49.40
2019-05-21T22:47:59.181Z,51.97
2019-05-21T22:50:27.963Z,49.60
2019-05-21T22:52:56.345Z,51.33
2019-05-21T22:55:25.091Z,52.13
2019-05-21T22:57:53.941Z,52.50
2019-05-21T23:00:22.934Z,51.00
2019-05-21T23:02:52.045Z,49.97
2019-05-21T23:05:23.000Z,50.60
2019-05-21T23:07:50.555Z,51.40
2019-05-21T23:10:20.061Z,51.70
2019-05-21T23:12:48.589Z,50.53
2019-05-21T23:15:24.858Z,51.60
2019-05-21T23:17:47.813Z,48.00
2019-05-21T23:20:17.022Z,51.07
2019-05-21T23:22:47.235Z,53.47
2019-05-21T23:25:17.035Z,50.07
2019-05-21T23:27:45.890Z,50.00
2019-05-21T23:30:16.247Z,50.60
2019-05-21T23:32:45.425Z,48.73
2019-05-21T23:35:14.312Z,48.73
2019-05-21T23:37:46.215Z,46.97
2019-05-21T23:40:17.340Z,47.27
2019-05-21T23:42:47.058Z,47.37
2019-05-21T23:45:15.671Z,46.87
2019-05-21T23:47:44.054Z,46.93
2019-05-21T23:50:15.057Z,47.60
2019-05-21T23:52:44.233Z,48.70
2019-05-21T23:55:14.460Z,49.47
2019-05-21T23:57:43.119Z,52.60
